Terminal Aerodrome Forecast
Issued by NWS Knoxville/Tri Cities, TN

Home | Current Version | Previous Version | Text Only | Print | Product List | Glossary On
Versions: 1 2 3 4 5 6 7 8 9 10 11 12 13 14 15 16 17 18 19 20 21 22 23 24 25 26 27 28
000
FTUS44 KMRX 270530
TAFCHA
TAF
KCHA 270530Z 2706/2806 VRB02KT P6SM OVC040
     FM271000 34003KT P6SM OVC020
     FM271700 35010KT P6SM OVC040
     FM280100 36007KT P6SM BKN035=

USA.gov is the U.S. government's official web portal to all federal, state and local government web resources and services.